sensor_id;sensor_type;location;lat;lon;timestamp;P1;durP1;ratioP1;P2;durP2;ratioP2
67717;SDS011;54511;47.532;19.180;2022-11-11T00:01:06;3.42;;;2.50;;
67717;SDS011;54511;47.532;19.180;2022-11-11T00:03:35;2.30;;;1.37;;
67717;SDS011;54511;47.532;19.180;2022-11-11T00:06:01;1.95;;;1.58;;
67717;SDS011;54511;47.532;19.180;2022-11-11T00:08:29;4.20;;;1.75;;
67717;SDS011;54511;47.532;19.180;2022-11-11T00:11:00;2.03;;;1.30;;
67717;SDS011;54511;47.532;19.180;2022-11-11T00:13:28;2.65;;;1.83;;
67717;SDS011;54511;47.532;19.180;2022-11-11T00:15:58;7.10;;;1.67;;
67717;SDS011;54511;47.532;19.180;2022-11-11T00:18:30;2.50;;;2.30;;
67717;SDS011;54511;47.532;19.180;2022-11-11T00:21:15;4.45;;;2.25;;
67717;SDS011;54511;47.532;19.180;2022-11-11T00:23:59;0.55;;;0.55;;
67717;SDS011;54511;47.532;19.180;2022-11-11T00:26:43;2.05;;;1.90;;
67717;SDS011;54511;47.532;19.180;2022-11-11T00:29:10;2.40;;;1.52;;
67717;SDS011;54511;47.532;19.180;2022-11-11T00:31:37;1.45;;;1.35;;
67717;SDS011;54511;47.532;19.180;2022-11-11T00:34:25;4.45;;;1.55;;
67717;SDS011;54511;47.532;19.180;2022-11-11T00:36:53;2.35;;;1.73;;
67717;SDS011;54511;47.532;19.180;2022-11-11T00:39:18;2.40;;;2.20;;
67717;SDS011;54511;47.532;19.180;2022-11-11T00:41:45;1.73;;;1.30;;
67717;SDS011;54511;47.532;19.180;2022-11-11T00:44:12;2.53;;;2.00;;
67717;SDS011;54511;47.532;19.180;2022-11-11T00:46:39;1.80;;;1.70;;
67717;SDS011;54511;47.532;19.180;2022-11-11T00:49:23;2.08;;;1.85;;
67717;SDS011;54511;47.532;19.180;2022-11-11T00:52:09;1.37;;;1.23;;
67717;SDS011;54511;47.532;19.180;2022-11-11T00:54:36;1.83;;;1.55;;
67717;SDS011;54511;47.532;19.180;2022-11-11T00:57:02;1.45;;;1.25;;
67717;SDS011;54511;47.532;19.180;2022-11-11T00:59:29;2.05;;;1.85;;
67717;SDS011;54511;47.532;19.180;2022-11-11T01:01:56;0.73;;;0.73;;
67717;SDS011;54511;47.532;19.180;2022-11-11T01:04:23;1.87;;;1.52;;
67717;SDS011;54511;47.532;19.180;2022-11-11T01:06:49;2.45;;;2.12;;
67717;SDS011;54511;47.532;19.180;2022-11-11T01:09:18;0.82;;;0.82;;
67717;SDS011;54511;47.532;19.180;2022-11-11T01:11:44;1.45;;;1.35;;
67717;SDS011;54511;47.532;19.180;2022-11-11T01:14:12;1.33;;;0.93;;
67717;SDS011;54511;47.532;19.180;2022-11-11T01:16:40;0.88;;;0.88;;
67717;SDS011;54511;47.532;19.180;2022-11-11T01:19:07;3.35;;;1.02;;
67717;SDS011;54511;47.532;19.180;2022-11-11T01:21:35;1.67;;;1.30;;
67717;SDS011;54511;47.532;19.180;2022-11-11T01:24:02;3.42;;;2.17;;
67717;SDS011;54511;47.532;19.180;2022-11-11T01:26:30;1.73;;;1.58;;
67717;SDS011;54511;47.532;19.180;2022-11-11T01:28:57;1.48;;;1.30;;
67717;SDS011;54511;47.532;19.180;2022-11-11T01:31:25;0.95;;;0.80;;
67717;SDS011;54511;47.532;19.180;2022-11-11T01:33:55;1.17;;;1.00;;
67717;SDS011;54511;47.532;19.180;2022-11-11T01:36:22;4.43;;;1.50;;
67717;SDS011;54511;47.532;19.180;2022-11-11T01:38:51;4.70;;;1.70;;
67717;SDS011;54511;47.532;19.180;2022-11-11T01:41:20;0.70;;;0.70;;
67717;SDS011;54511;47.532;19.180;2022-11-11T01:46:33;1.35;;;1.33;;
67717;SDS011;54511;47.532;19.180;2022-11-11T01:49:05;1.60;;;1.48;;
67717;SDS011;54511;47.532;19.180;2022-11-11T01:51:52;2.22;;;1.37;;
67717;SDS011;54511;47.532;19.180;2022-11-11T01:54:23;0.82;;;0.82;;
67717;SDS011;54511;47.532;19.180;2022-11-11T01:56:54;2.42;;;2.22;;
67717;SDS011;54511;47.532;19.180;2022-11-11T01:59:26;1.45;;;1.23;;
67717;SDS011;54511;47.532;19.180;2022-11-11T02:01:56;2.35;;;1.83;;
67717;SDS011;54511;47.532;19.180;2022-11-11T02:04:22;3.10;;;1.20;;
67717;SDS011;54511;47.532;19.180;2022-11-11T02:07:07;1.60;;;1.50;;
67717;SDS011;54511;47.532;19.180;2022-11-11T02:09:35;2.22;;;1.40;;
67717;SDS011;54511;47.532;19.180;2022-11-11T02:12:05;3.80;;;2.35;;
67717;SDS011;54511;47.532;19.180;2022-11-11T02:14:54;1.62;;;1.45;;
67717;SDS011;54511;47.532;19.180;2022-11-11T02:17:23;2.25;;;1.48;;
67717;SDS011;54511;47.532;19.180;2022-11-11T02:19:52;4.82;;;1.08;;
67717;SDS011;54511;47.532;19.180;2022-11-11T02:22:22;0.75;;;0.45;;
67717;SDS011;54511;47.532;19.180;2022-11-11T02:25:07;1.52;;;0.80;;
67717;SDS011;54511;47.532;19.180;2022-11-11T02:27:37;1.35;;;0.95;;
67717;SDS011;54511;47.532;19.180;2022-11-11T02:30:07;1.80;;;1.37;;
67717;SDS011;54511;47.532;19.180;2022-11-11T02:32:40;0.70;;;0.68;;
67717;SDS011;54511;47.532;19.180;2022-11-11T02:35:10;1.05;;;0.93;;
67717;SDS011;54511;47.532;19.180;2022-11-11T02:37:39;1.35;;;1.17;;
67717;SDS011;54511;47.532;19.180;2022-11-11T02:40:10;1.42;;;0.70;;
67717;SDS011;54511;47.532;19.180;2022-11-11T02:42:38;5.18;;;2.05;;
67717;SDS011;54511;47.532;19.180;2022-11-11T02:45:05;3.70;;;1.23;;
67717;SDS011;54511;47.532;19.180;2022-11-11T02:47:33;3.12;;;2.17;;
67717;SDS011;54511;47.532;19.180;2022-11-11T02:49:59;4.70;;;1.75;;
67717;SDS011;54511;47.532;19.180;2022-11-11T02:52:26;0.90;;;0.82;;
67717;SDS011;54511;47.532;19.180;2022-11-11T02:54:53;1.95;;;1.42;;
67717;SDS011;54511;47.532;19.180;2022-11-11T02:57:22;0.60;;;0.60;;
67717;SDS011;54511;47.532;19.180;2022-11-11T02:59:50;1.80;;;1.12;;
67717;SDS011;54511;47.532;19.180;2022-11-11T03:02:17;0.98;;;0.93;;
67717;SDS011;54511;47.532;19.180;2022-11-11T03:04:46;0.37;;;0.30;;
67717;SDS011;54511;47.532;19.180;2022-11-11T03:07:13;3.03;;;1.98;;
67717;SDS011;54511;47.532;19.180;2022-11-11T03:09:40;1.65;;;1.05;;
67717;SDS011;54511;47.532;19.180;2022-11-11T03:12:07;1.98;;;1.65;;
67717;SDS011;54511;47.532;19.180;2022-11-11T03:14:36;3.05;;;1.60;;
67717;SDS011;54511;47.532;19.180;2022-11-11T03:17:02;1.98;;;1.17;;
67717;SDS011;54511;47.532;19.180;2022-11-11T03:19:47;1.37;;;1.25;;
67717;SDS011;54511;47.532;19.180;2022-11-11T03:22:14;2.17;;;0.68;;
67717;SDS011;54511;47.532;19.180;2022-11-11T03:24:40;1.62;;;1.02;;
67717;SDS011;54511;47.532;19.180;2022-11-11T03:27:24;0.90;;;0.68;;
67717;SDS011;54511;47.532;19.180;2022-11-11T03:29:53;2.72;;;1.15;;
67717;SDS011;54511;47.532;19.180;2022-11-11T03:32:20;1.87;;;1.70;;
67717;SDS011;54511;47.532;19.180;2022-11-11T03:34:47;1.25;;;1.15;;
67717;SDS011;54511;47.532;19.180;2022-11-11T03:37:14;1.17;;;1.08;;
67717;SDS011;54511;47.532;19.180;2022-11-11T03:39:58;0.62;;;0.60;;
67717;SDS011;54511;47.532;19.180;2022-11-11T03:42:25;2.20;;;1.62;;
67717;SDS011;54511;47.532;19.180;2022-11-11T03:44:54;1.40;;;1.17;;
67717;SDS011;54511;47.532;19.180;2022-11-11T03:47:21;1.92;;;1.80;;
67717;SDS011;54511;47.532;19.180;2022-11-11T03:49:48;2.65;;;1.77;;
67717;SDS011;54511;47.532;19.180;2022-11-11T03:52:14;2.37;;;1.73;;
67717;SDS011;54511;47.532;19.180;2022-11-11T03:54:42;0.85;;;0.85;;
67717;SDS011;54511;47.532;19.180;2022-11-11T03:57:08;1.62;;;1.52;;
67717;SDS011;54511;47.532;19.180;2022-11-11T03:59:54;1.70;;;1.10;;
67717;SDS011;54511;47.532;19.180;2022-11-11T04:02:21;5.93;;;1.05;;
67717;SDS011;54511;47.532;19.180;2022-11-11T04:05:05;2.33;;;2.15;;
67717;SDS011;54511;47.532;19.180;2022-11-11T04:07:50;1.45;;;0.93;;
67717;SDS011;54511;47.532;19.180;2022-11-11T04:10:34;3.15;;;1.62;;
67717;SDS011;54511;47.532;19.180;2022-11-11T04:13:01;0.68;;;0.50;;
67717;SDS011;54511;47.532;19.180;2022-11-11T04:15:48;0.65;;;0.65;;
67717;SDS011;54511;47.532;19.180;2022-11-11T04:18:34;0.60;;;0.57;;
67717;SDS011;54511;47.532;19.180;2022-11-11T04:21:19;0.88;;;0.82;;
67717;SDS011;54511;47.532;19.180;2022-11-11T04:24:04;0.57;;;0.43;;
67717;SDS011;54511;47.532;19.180;2022-11-11T04:26:52;1.73;;;0.95;;
67717;SDS011;54511;47.532;19.180;2022-11-11T04:29:19;0.30;;;0.30;;
67717;SDS011;54511;47.532;19.180;2022-11-11T04:31:58;0.60;;;0.50;;
67717;SDS011;54511;47.532;19.180;2022-11-11T04:34:43;1.52;;;1.00;;
67717;SDS011;54511;47.532;19.180;2022-11-11T04:37:11;1.65;;;0.95;;
67717;SDS011;54511;47.532;19.180;2022-11-11T04:39:38;1.05;;;0.75;;
67717;SDS011;54511;47.532;19.180;2022-11-11T04:42:22;0.47;;;0.47;;
67717;SDS011;54511;47.532;19.180;2022-11-11T04:44:49;1.55;;;1.37;;
67717;SDS011;54511;47.532;19.180;2022-11-11T04:47:35;3.95;;;1.55;;
67717;SDS011;54511;47.532;19.180;2022-11-11T04:50:02;2.17;;;1.35;;
67717;SDS011;54511;47.532;19.180;2022-11-11T04:52:30;0.73;;;0.73;;
67717;SDS011;54511;47.532;19.180;2022-11-11T04:54:57;1.25;;;1.15;;
67717;SDS011;54511;47.532;19.180;2022-11-11T04:57:42;0.65;;;0.65;;
67717;SDS011;54511;47.532;19.180;2022-11-11T05:00:11;2.10;;;1.15;;
67717;SDS011;54511;47.532;19.180;2022-11-11T05:02:41;1.48;;;1.37;;
67717;SDS011;54511;47.532;19.180;2022-11-11T05:05:25;4.00;;;1.73;;
67717;SDS011;54511;47.532;19.180;2022-11-11T05:07:52;0.90;;;0.45;;
67717;SDS011;54511;47.532;19.180;2022-11-11T05:10:37;0.70;;;0.70;;
67717;SDS011;54511;47.532;19.180;2022-11-11T05:13:05;0.65;;;0.40;;
67717;SDS011;54511;47.532;19.180;2022-11-11T05:15:50;0.32;;;0.28;;
67717;SDS011;54511;47.532;19.180;2022-11-11T05:18:35;0.55;;;0.55;;
67717;SDS011;54511;47.532;19.180;2022-11-11T05:21:20;1.05;;;0.95;;
67717;SDS011;54511;47.532;19.180;2022-11-11T05:23:50;0.52;;;0.52;;
67717;SDS011;54511;47.532;19.180;2022-11-11T05:26:31;2.20;;;1.53;;
67717;SDS011;54511;47.532;19.180;2022-11-11T05:28:58;0.47;;;0.47;;
67717;SDS011;54511;47.532;19.180;2022-11-11T05:31:24;1.33;;;0.88;;
67717;SDS011;54511;47.532;19.180;2022-11-11T05:33:53;2.85;;;0.73;;
67717;SDS011;54511;47.532;19.180;2022-11-11T05:36:20;0.57;;;0.57;;
67717;SDS011;54511;47.532;19.180;2022-11-11T05:38:47;2.60;;;1.05;;
67717;SDS011;54511;47.532;19.180;2022-11-11T05:41:14;2.00;;;1.85;;
67717;SDS011;54511;47.532;19.180;2022-11-11T05:43:41;3.80;;;1.85;;
67717;SDS011;54511;47.532;19.180;2022-11-11T05:46:08;0.82;;;0.82;;
67717;SDS011;54511;47.532;19.180;2022-11-11T05:48:35;7.28;;;1.67;;
67717;SDS011;54511;47.532;19.180;2022-11-11T05:51:24;1.12;;;0.65;;
67717;SDS011;54511;47.532;19.180;2022-11-11T05:53:54;0.70;;;0.70;;
67717;SDS011;54511;47.532;19.180;2022-11-11T05:56:21;0.62;;;0.62;;
67717;SDS011;54511;47.532;19.180;2022-11-11T05:58:48;2.37;;;2.17;;
67717;SDS011;54511;47.532;19.180;2022-11-11T06:01:15;1.25;;;0.82;;
67717;SDS011;54511;47.532;19.180;2022-11-11T06:03:42;1.98;;;1.48;;
67717;SDS011;54511;47.532;19.180;2022-11-11T06:06:09;4.07;;;2.78;;
67717;SDS011;54511;47.532;19.180;2022-11-11T06:08:38;4.12;;;0.70;;
67717;SDS011;54511;47.532;19.180;2022-11-11T06:11:05;0.88;;;0.85;;
67717;SDS011;54511;47.532;19.180;2022-11-11T06:13:32;2.08;;;1.65;;
67717;SDS011;54511;47.532;19.180;2022-11-11T06:15:59;1.48;;;1.00;;
67717;SDS011;54511;47.532;19.180;2022-11-11T06:18:26;1.12;;;0.80;;
67717;SDS011;54511;47.532;19.180;2022-11-11T06:20:53;2.47;;;1.87;;
67717;SDS011;54511;47.532;19.180;2022-11-11T06:23:21;2.42;;;0.93;;
67717;SDS011;54511;47.532;19.180;2022-11-11T06:25:54;5.90;;;1.80;;
67717;SDS011;54511;47.532;19.180;2022-11-11T06:28:40;0.52;;;0.45;;
67717;SDS011;54511;47.532;19.180;2022-11-11T06:31:07;1.75;;;1.65;;
67717;SDS011;54511;47.532;19.180;2022-11-11T06:33:47;1.90;;;1.00;;
67717;SDS011;54511;47.532;19.180;2022-11-11T06:36:14;0.37;;;0.17;;
67717;SDS011;54511;47.532;19.180;2022-11-11T06:38:42;5.22;;;2.35;;
67717;SDS011;54511;47.532;19.180;2022-11-11T06:41:11;2.03;;;1.83;;
67717;SDS011;54511;47.532;19.180;2022-11-11T06:43:38;2.35;;;1.55;;
67717;SDS011;54511;47.532;19.180;2022-11-11T06:46:05;2.42;;;1.62;;
67717;SDS011;54511;47.532;19.180;2022-11-11T06:48:32;0.88;;;0.80;;
67717;SDS011;54511;47.532;19.180;2022-11-11T06:51:02;0.90;;;0.60;;
67717;SDS011;54511;47.532;19.180;2022-11-11T06:53:31;1.00;;;0.90;;
67717;SDS011;54511;47.532;19.180;2022-11-11T06:56:00;4.03;;;1.70;;
67717;SDS011;54511;47.532;19.180;2022-11-11T06:58:28;2.75;;;0.62;;
67717;SDS011;54511;47.532;19.180;2022-11-11T07:00:55;3.28;;;1.48;;
67717;SDS011;54511;47.532;19.180;2022-11-11T07:03:22;1.15;;;0.85;;
67717;SDS011;54511;47.532;19.180;2022-11-11T07:05:48;2.03;;;1.83;;
67717;SDS011;54511;47.532;19.180;2022-11-11T07:08:16;1.65;;;1.17;;
67717;SDS011;54511;47.532;19.180;2022-11-11T07:10:44;1.33;;;0.82;;
67717;SDS011;54511;47.532;19.180;2022-11-11T07:13:12;1.90;;;1.62;;
67717;SDS011;54511;47.532;19.180;2022-11-11T07:15:40;8.45;;;2.72;;
67717;SDS011;54511;47.532;19.180;2022-11-11T07:18:07;2.60;;;1.52;;
67717;SDS011;54511;47.532;19.180;2022-11-11T07:20:35;4.45;;;2.10;;
67717;SDS011;54511;47.532;19.180;2022-11-11T07:23:02;3.40;;;1.37;;
67717;SDS011;54511;47.532;19.180;2022-11-11T07:25:29;2.45;;;2.20;;
67717;SDS011;54511;47.532;19.180;2022-11-11T07:27:56;6.43;;;3.33;;
67717;SDS011;54511;47.532;19.180;2022-11-11T07:30:23;4.35;;;2.35;;
67717;SDS011;54511;47.532;19.180;2022-11-11T07:32:51;2.53;;;1.75;;
67717;SDS011;54511;47.532;19.180;2022-11-11T07:35:19;4.25;;;3.37;;
67717;SDS011;54511;47.532;19.180;2022-11-11T07:37:46;4.47;;;2.60;;
67717;SDS011;54511;47.532;19.180;2022-11-11T07:40:15;0.80;;;0.68;;
67717;SDS011;54511;47.532;19.180;2022-11-11T07:42:43;3.35;;;3.03;;
67717;SDS011;54511;47.532;19.180;2022-11-11T07:45:10;2.40;;;2.15;;
67717;SDS011;54511;47.532;19.180;2022-11-11T07:47:38;1.90;;;1.23;;
67717;SDS011;54511;47.532;19.180;2022-11-11T07:50:07;0.70;;;0.70;;
67717;SDS011;54511;47.532;19.180;2022-11-11T07:52:34;4.75;;;1.62;;
67717;SDS011;54511;47.532;19.180;2022-11-11T07:55:02;4.57;;;2.03;;
67717;SDS011;54511;47.532;19.180;2022-11-11T07:57:29;2.70;;;1.37;;
67717;SDS011;54511;47.532;19.180;2022-11-11T07:59:56;2.85;;;2.00;;
67717;SDS011;54511;47.532;19.180;2022-11-11T08:02:23;1.48;;;1.37;;
67717;SDS011;54511;47.532;19.180;2022-11-11T08:04:51;3.55;;;2.12;;
67717;SDS011;54511;47.532;19.180;2022-11-11T08:07:20;2.25;;;1.50;;
67717;SDS011;54511;47.532;19.180;2022-11-11T08:09:46;4.20;;;1.95;;
67717;SDS011;54511;47.532;19.180;2022-11-11T08:12:13;3.60;;;1.87;;
67717;SDS011;54511;47.532;19.180;2022-11-11T08:14:58;2.75;;;2.22;;
67717;SDS011;54511;47.532;19.180;2022-11-11T08:17:25;1.85;;;1.45;;
67717;SDS011;54511;47.532;19.180;2022-11-11T08:19:52;4.68;;;2.78;;
67717;SDS011;54511;47.532;19.180;2022-11-11T08:22:20;1.65;;;1.45;;
67717;SDS011;54511;47.532;19.180;2022-11-11T08:24:47;3.50;;;2.78;;
67717;SDS011;54511;47.532;19.180;2022-11-11T08:27:13;5.47;;;1.90;;
67717;SDS011;54511;47.532;19.180;2022-11-11T08:29:40;2.90;;;2.15;;
67717;SDS011;54511;47.532;19.180;2022-11-11T08:32:07;6.40;;;1.85;;
67717;SDS011;54511;47.532;19.180;2022-11-11T08:34:35;3.62;;;1.48;;
67717;SDS011;54511;47.532;19.180;2022-11-11T08:37:02;2.05;;;1.65;;
67717;SDS011;54511;47.532;19.180;2022-11-11T08:39:31;1.83;;;1.37;;
67717;SDS011;54511;47.532;19.180;2022-11-11T08:41:57;1.87;;;1.37;;
67717;SDS011;54511;47.532;19.180;2022-11-11T08:44:24;3.47;;;1.77;;
67717;SDS011;54511;47.532;19.180;2022-11-11T08:46:51;7.28;;;3.60;;
67717;SDS011;54511;47.532;19.180;2022-11-11T08:49:19;2.65;;;1.23;;
67717;SDS011;54511;47.532;19.180;2022-11-11T08:51:46;2.53;;;1.95;;
67717;SDS011;54511;47.532;19.180;2022-11-11T08:54:12;2.12;;;1.10;;
67717;SDS011;54511;47.532;19.180;2022-11-11T08:56:41;1.30;;;0.85;;
67717;SDS011;54511;47.532;19.180;2022-11-11T08:59:07;1.52;;;1.42;;
67717;SDS011;54511;47.532;19.180;2022-11-11T09:01:35;3.78;;;2.37;;
67717;SDS011;54511;47.532;19.180;2022-11-11T09:04:03;2.25;;;1.62;;
67717;SDS011;54511;47.532;19.180;2022-11-11T09:06:30;1.17;;;1.12;;
67717;SDS011;54511;47.532;19.180;2022-11-11T09:08:56;4.32;;;1.58;;
67717;SDS011;54511;47.532;19.180;2022-11-11T09:11:24;2.25;;;1.42;;
67717;SDS011;54511;47.532;19.180;2022-11-11T09:13:53;2.72;;;2.10;;
67717;SDS011;54511;47.532;19.180;2022-11-11T09:16:20;5.57;;;1.75;;
67717;SDS011;54511;47.532;19.180;2022-11-11T09:18:47;2.90;;;2.10;;
67717;SDS011;54511;47.532;19.180;2022-11-11T09:21:14;4.25;;;1.55;;
67717;SDS011;54511;47.532;19.180;2022-11-11T09:23:40;3.25;;;2.50;;
67717;SDS011;54511;47.532;19.180;2022-11-11T09:26:07;3.67;;;2.00;;
67717;SDS011;54511;47.532;19.180;2022-11-11T09:28:34;1.75;;;1.50;;
67717;SDS011;54511;47.532;19.180;2022-11-11T09:31:03;3.05;;;1.52;;
67717;SDS011;54511;47.532;19.180;2022-11-11T09:33:30;3.33;;;2.12;;
67717;SDS011;54511;47.532;19.180;2022-11-11T09:35:57;12.35;;;2.75;;
67717;SDS011;54511;47.532;19.180;2022-11-11T09:38:24;5.93;;;2.95;;
67717;SDS011;54511;47.532;19.180;2022-11-11T09:40:55;2.80;;;2.17;;
67717;SDS011;54511;47.532;19.180;2022-11-11T09:43:30;2.28;;;1.60;;
67717;SDS011;54511;47.532;19.180;2022-11-11T09:46:07;3.67;;;2.25;;
67717;SDS011;54511;47.532;19.180;2022-11-11T09:48:47;3.93;;;2.50;;
67717;SDS011;54511;47.532;19.180;2022-11-11T09:51:20;3.85;;;1.75;;
67717;SDS011;54511;47.532;19.180;2022-11-11T09:53:51;3.37;;;2.53;;
67717;SDS011;54511;47.532;19.180;2022-11-11T09:56:21;3.75;;;2.50;;
67717;SDS011;54511;47.532;19.180;2022-11-11T09:58:49;4.37;;;2.75;;
67717;SDS011;54511;47.532;19.180;2022-11-11T10:01:20;4.18;;;1.90;;
67717;SDS011;54511;47.532;19.180;2022-11-11T10:03:51;3.00;;;2.40;;
67717;SDS011;54511;47.532;19.180;2022-11-11T10:06:25;5.55;;;2.58;;
67717;SDS011;54511;47.532;19.180;2022-11-11T10:08:55;16.42;;;3.67;;
67717;SDS011;54511;47.532;19.180;2022-11-11T10:11:28;3.10;;;1.90;;
67717;SDS011;54511;47.532;19.180;2022-11-11T10:13:59;4.32;;;3.40;;
67717;SDS011;54511;47.532;19.180;2022-11-11T10:16:29;9.07;;;3.87;;
67717;SDS011;54511;47.532;19.180;2022-11-11T10:19:03;3.83;;;1.92;;
67717;SDS011;54511;47.532;19.180;2022-11-11T10:21:36;2.67;;;2.37;;
67717;SDS011;54511;47.532;19.180;2022-11-11T10:24:17;4.47;;;3.03;;
67717;SDS011;54511;47.532;19.180;2022-11-11T10:26:50;7.37;;;3.75;;
67717;SDS011;54511;47.532;19.180;2022-11-11T10:29:18;3.80;;;2.12;;
67717;SDS011;54511;47.532;19.180;2022-11-11T10:31:49;6.53;;;4.22;;
67717;SDS011;54511;47.532;19.180;2022-11-11T10:34:21;4.72;;;2.90;;
67717;SDS011;54511;47.532;19.180;2022-11-11T10:36:49;4.68;;;3.15;;
67717;SDS011;54511;47.532;19.180;2022-11-11T10:39:18;5.05;;;2.42;;
67717;SDS011;54511;47.532;19.180;2022-11-11T10:41:50;5.43;;;3.75;;
67717;SDS011;54511;47.532;19.180;2022-11-11T10:44:18;7.28;;;3.58;;
67717;SDS011;54511;47.532;19.180;2022-11-11T10:46:51;7.40;;;3.33;;
67717;SDS011;54511;47.532;19.180;2022-11-11T10:49:23;4.10;;;2.47;;
67717;SDS011;54511;47.532;19.180;2022-11-11T10:51:53;6.97;;;4.40;;
67717;SDS011;54511;47.532;19.180;2022-11-11T10:54:23;9.53;;;3.83;;
67717;SDS011;54511;47.532;19.180;2022-11-11T10:56:53;6.97;;;3.40;;
67717;SDS011;54511;47.532;19.180;2022-11-11T10:59:23;7.37;;;3.42;;
67717;SDS011;54511;47.532;19.180;2022-11-11T11:01:53;6.62;;;4.20;;
67717;SDS011;54511;47.532;19.180;2022-11-11T11:04:25;8.55;;;3.92;;
67717;SDS011;54511;47.532;19.180;2022-11-11T11:06:57;6.05;;;3.28;;
67717;SDS011;54511;47.532;19.180;2022-11-11T11:09:26;10.10;;;2.97;;
67717;SDS011;54511;47.532;19.180;2022-11-11T11:11:57;5.68;;;3.03;;
67717;SDS011;54511;47.532;19.180;2022-11-11T11:14:28;7.00;;;3.10;;
67717;SDS011;54511;47.532;19.180;2022-11-11T11:16:59;9.90;;;2.37;;
67717;SDS011;54511;47.532;19.180;2022-11-11T11:19:32;6.65;;;2.78;;
67717;SDS011;54511;47.532;19.180;2022-11-11T11:22:00;6.20;;;3.15;;
67717;SDS011;54511;47.532;19.180;2022-11-11T11:24:28;5.53;;;2.83;;
67717;SDS011;54511;47.532;19.180;2022-11-11T11:26:56;4.93;;;3.05;;
67717;SDS011;54511;47.532;19.180;2022-11-11T11:29:25;7.07;;;3.47;;
67717;SDS011;54511;47.532;19.180;2022-11-11T11:31:54;7.62;;;2.97;;
67717;SDS011;54511;47.532;19.180;2022-11-11T11:34:23;9.55;;;4.70;;
67717;SDS011;54511;47.532;19.180;2022-11-11T11:37:08;10.13;;;2.58;;
67717;SDS011;54511;47.532;19.180;2022-11-11T11:39:36;7.78;;;4.28;;
67717;SDS011;54511;47.532;19.180;2022-11-11T11:42:04;9.35;;;3.95;;
67717;SDS011;54511;47.532;19.180;2022-11-11T11:44:31;7.03;;;3.37;;
67717;SDS011;54511;47.532;19.180;2022-11-11T11:47:02;10.13;;;4.40;;
67717;SDS011;54511;47.532;19.180;2022-11-11T11:49:43;4.03;;;3.58;;
67717;SDS011;54511;47.532;19.180;2022-11-11T11:52:22;5.50;;;4.07;;
67717;SDS011;54511;47.532;19.180;2022-11-11T11:54:57;4.97;;;2.72;;
67717;SDS011;54511;47.532;19.180;2022-11-11T11:57:29;7.15;;;3.55;;
67717;SDS011;54511;47.532;19.180;2022-11-11T12:00:04;5.45;;;3.28;;
67717;SDS011;54511;47.532;19.180;2022-11-11T12:02:43;2.28;;;2.08;;
67717;SDS011;54511;47.532;19.180;2022-11-11T12:05:30;3.75;;;2.35;;
67717;SDS011;54511;47.532;19.180;2022-11-11T12:08:05;7.07;;;2.00;;
67717;SDS011;54511;47.532;19.180;2022-11-11T12:10:42;3.45;;;2.22;;
67717;SDS011;54511;47.532;19.180;2022-11-11T12:13:16;8.60;;;1.70;;
67717;SDS011;54511;47.532;19.180;2022-11-11T12:15:49;2.58;;;1.30;;
67717;SDS011;54511;47.532;19.180;2022-11-11T12:18:35;2.05;;;1.85;;
67717;SDS011;54511;47.532;19.180;2022-11-11T12:21:12;1.80;;;1.60;;
67717;SDS011;54511;47.532;19.180;2022-11-11T12:26:34;1.50;;;1.40;;
67717;SDS011;54511;47.532;19.180;2022-11-11T12:29:10;6.22;;;1.70;;
67717;SDS011;54511;47.532;19.180;2022-11-11T12:31:47;1.10;;;1.00;;
67717;SDS011;54511;47.532;19.180;2022-11-11T12:34:28;2.50;;;1.55;;
67717;SDS011;54511;47.532;19.180;2022-11-11T12:37:03;1.48;;;1.27;;
67717;SDS011;54511;47.532;19.180;2022-11-11T12:39:39;1.42;;;1.23;;
67717;SDS011;54511;47.532;19.180;2022-11-11T12:42:18;1.90;;;1.30;;
67717;SDS011;54511;47.532;19.180;2022-11-11T12:45:00;1.55;;;1.15;;
67717;SDS011;54511;47.532;19.180;2022-11-11T12:47:35;3.33;;;1.77;;
67717;SDS011;54511;47.532;19.180;2022-11-11T12:50:07;1.77;;;1.25;;
67717;SDS011;54511;47.532;19.180;2022-11-11T12:52:43;1.55;;;1.45;;
67717;SDS011;54511;47.532;19.180;2022-11-11T12:55:17;1.15;;;0.98;;
67717;SDS011;54511;47.532;19.180;2022-11-11T12:57:53;3.00;;;1.00;;
67717;SDS011;54511;47.532;19.180;2022-11-11T13:00:28;2.00;;;1.35;;
67717;SDS011;54511;47.532;19.180;2022-11-11T13:03:04;3.45;;;1.52;;
67717;SDS011;54511;47.532;19.180;2022-11-11T13:05:39;3.42;;;1.17;;
67717;SDS011;54511;47.532;19.180;2022-11-11T13:11:07;1.15;;;0.95;;
67717;SDS011;54511;47.532;19.180;2022-11-11T13:13:42;1.08;;;0.85;;
67717;SDS011;54511;47.532;19.180;2022-11-11T13:16:15;4.03;;;1.90;;
67717;SDS011;54511;47.532;19.180;2022-11-11T13:18:45;1.23;;;0.82;;
67717;SDS011;54511;47.532;19.180;2022-11-11T13:21:17;1.35;;;1.15;;
67717;SDS011;54511;47.532;19.180;2022-11-11T13:23:47;2.90;;;1.42;;
67717;SDS011;54511;47.532;19.180;2022-11-11T13:26:19;1.17;;;0.88;;
67717;SDS011;54511;47.532;19.180;2022-11-11T13:28:50;1.25;;;1.10;;
67717;SDS011;54511;47.532;19.180;2022-11-11T13:31:23;1.15;;;1.10;;
67717;SDS011;54511;47.532;19.180;2022-11-11T13:33:56;1.85;;;1.60;;
67717;SDS011;54511;47.532;19.180;2022-11-11T13:36:27;2.20;;;1.33;;
67717;SDS011;54511;47.532;19.180;2022-11-11T13:38:57;1.40;;;1.10;;
67717;SDS011;54511;47.532;19.180;2022-11-11T13:41:26;5.72;;;1.60;;
67717;SDS011;54511;47.532;19.180;2022-11-11T13:43:56;3.85;;;1.15;;
67717;SDS011;54511;47.532;19.180;2022-11-11T13:46:32;1.40;;;1.10;;
67717;SDS011;54511;47.532;19.180;2022-11-11T13:49:01;2.37;;;1.55;;
67717;SDS011;54511;47.532;19.180;2022-11-11T13:51:30;2.75;;;1.42;;
67717;SDS011;54511;47.532;19.180;2022-11-11T13:54:03;4.55;;;1.27;;
67717;SDS011;54511;47.532;19.180;2022-11-11T13:56:39;6.12;;;2.15;;
67717;SDS011;54511;47.532;19.180;2022-11-11T13:59:13;2.90;;;1.12;;
67717;SDS011;54511;47.532;19.180;2022-11-11T14:01:43;2.37;;;1.40;;
67717;SDS011;54511;47.532;19.180;2022-11-11T14:04:10;2.03;;;1.55;;
67717;SDS011;54511;47.532;19.180;2022-11-11T14:12:34;1.65;;;1.50;;
67717;SDS011;54511;47.532;19.180;2022-11-11T14:24:08;4.47;;;2.62;;
67717;SDS011;54511;47.532;19.180;2022-11-11T14:26:37;2.62;;;2.25;;
67717;SDS011;54511;47.532;19.180;2022-11-11T14:29:04;3.22;;;2.12;;
67717;SDS011;54511;47.532;19.180;2022-11-11T14:31:48;3.40;;;1.65;;
67717;SDS011;54511;47.532;19.180;2022-11-11T14:34:33;2.95;;;1.87;;
67717;SDS011;54511;47.532;19.180;2022-11-11T14:37:12;3.90;;;1.85;;
67717;SDS011;54511;47.532;19.180;2022-11-11T14:39:46;6.80;;;2.08;;
67717;SDS011;54511;47.532;19.180;2022-11-11T14:51:39;4.20;;;2.08;;
67717;SDS011;54511;47.532;19.180;2022-11-11T14:54:31;5.50;;;2.60;;
67717;SDS011;54511;47.532;19.180;2022-11-11T14:57:03;6.82;;;2.95;;
67717;SDS011;54511;47.532;19.180;2022-11-11T14:59:33;3.00;;;2.12;;
67717;SDS011;54511;47.532;19.180;2022-11-11T15:02:01;5.60;;;1.85;;
67717;SDS011;54511;47.532;19.180;2022-11-11T15:04:35;4.32;;;2.53;;
67717;SDS011;54511;47.532;19.180;2022-11-11T15:07:03;2.85;;;2.17;;
67717;SDS011;54511;47.532;19.180;2022-11-11T15:09:51;6.25;;;2.03;;
67717;SDS011;54511;47.532;19.180;2022-11-11T15:12:33;4.12;;;2.37;;
67717;SDS011;54511;47.532;19.180;2022-11-11T15:15:11;2.80;;;2.17;;
67717;SDS011;54511;47.532;19.180;2022-11-11T15:17:47;2.85;;;1.75;;
67717;SDS011;54511;47.532;19.180;2022-11-11T15:20:21;5.28;;;2.00;;
67717;SDS011;54511;47.532;19.180;2022-11-11T15:22:54;3.80;;;2.22;;
67717;SDS011;54511;47.532;19.180;2022-11-11T15:25:28;3.70;;;2.10;;
67717;SDS011;54511;47.532;19.180;2022-11-11T15:28:01;3.33;;;2.37;;
67717;SDS011;54511;47.532;19.180;2022-11-11T15:30:44;5.47;;;1.65;;